Time;durP1;ratioP1;P1;durP2;ratioP2;P2;SDS_P1;SDS_P2;PMS_P1;PMS_P2;Temp;Humidity;BMP_temperature;BMP_pressure;BME280_temperature;BME280_humidity;BME280_pressure;Samples;Min_cycle;Max_cycle;Signal;HPM_P1;HPM_P2
2022/09/26 00:01:39;;;;;;;5.60;4.07;;;;;;;10.87;100.00;-24120.72;5094936;28;20173;-65
2022/09/26 00:04:37;;;;;;;6.57;3.27;;;;;;;10.93;100.00;-24122.28;5093294;28;20636;-65
2022/09/26 00:07:02;;;;;;;5.37;3.57;;;;;;;10.64;100.00;-24114.38;5060450;28;20217;-65
2022/09/26 00:09:28;;;;;;;5.93;3.90;;;;;;;10.60;100.00;-24113.13;5094251;28;20331;-64
2022/09/26 00:11:53;;;;;;;5.00;3.87;;;;;;;10.61;100.00;-24113.41;5092743;28;20174;-65
2022/09/26 00:14:23;;;;;;;6.30;4.10;;;;;;;10.82;100.00;-24119.31;5093146;28;20632;-65
2022/09/26 00:16:48;;;;;;;6.30;4.40;;;;;;;10.47;100.00;-24109.44;5094434;28;20248;-65
2022/09/26 00:19:14;;;;;;;7.53;4.27;;;;;;;10.48;100.00;-24109.88;5094201;28;20719;-65
2022/09/26 00:21:40;;;;;;;6.33;4.53;;;;;;;10.73;100.00;-24116.63;5093802;28;20632;-64
2022/09/26 00:24:05;;;;;;;6.40;4.37;;;;;;;10.30;100.00;-24104.78;5092295;28;20181;-64
2022/09/26 00:26:33;;;;;;;10.10;4.57;;;;;;;10.27;100.00;-24103.78;5093889;28;20601;-64
2022/09/26 00:29:03;;;;;;;4.57;3.60;;;;;;;10.55;100.00;-24111.84;5094033;28;20174;-64
2022/09/26 00:31:31;;;;;;;5.27;3.37;;;;;;;10.15;100.00;-24100.53;5093813;28;20166;-65
2022/09/26 00:33:58;;;;;;;7.13;3.20;;;;;;;10.49;100.00;-24110.16;5073847;28;20182;-65
2022/09/26 00:36:24;;;;;;;6.13;3.23;;;;;;;10.39;100.00;-24107.31;5073300;28;20178;-64
2022/09/26 00:38:49;;;;;;;4.83;3.33;;;;;;;10.56;100.00;-24112.13;5072940;28;20652;-64
2022/09/26 00:41:15;;;;;;;4.40;3.20;;;;;;;10.32;100.00;-24105.34;5072912;28;20237;-64
2022/09/26 00:43:44;;;;;;;4.60;3.03;;;;;;;10.41;100.00;-24107.88;5073260;28;20261;-64
2022/09/26 00:46:28;;;;;;;4.40;3.20;;;;;;;10.13;100.00;-24099.97;5073131;28;20178;-64
2022/09/26 00:49:12;;;;;;;5.20;3.20;;;;;;;10.42;100.00;-24108.03;5072740;28;20725;-64
2022/09/26 00:51:41;;;;;;;5.23;3.47;;;;;;;10.28;100.00;-24104.06;5073067;28;20162;-64
2022/09/26 00:54:11;;;;;;;4.73;3.13;;;;;;;10.52;100.00;-24110.84;5072626;28;20700;-65
2022/09/26 00:56:39;;;;;;;6.87;3.50;;;;;;;10.30;100.00;-24104.78;5071171;28;20174;-66
2022/09/26 00:59:21;;;;;;;7.33;4.23;;;;;;;9.99;100.00;-24096.16;5073370;28;20225;-64
2022/09/26 01:01:47;;;;;;;3.93;3.23;;;;;;;10.08;100.00;-24098.56;5073259;28;20167;-64
2022/09/26 01:04:13;;;;;;;6.30;3.73;;;;;;;9.92;100.00;-24094.19;5073124;28;20633;-65
2022/09/26 01:06:40;;;;;;;6.43;3.67;;;;;;;10.16;100.00;-24100.84;5073148;28;20166;-65
2022/09/26 01:09:07;;;;;;;5.27;3.60;;;;;;;10.26;100.00;-24103.66;5073247;28;20565;-65
2022/09/26 01:11:36;;;;;;;4.80;3.47;;;;;;;10.04;100.00;-24097.44;5073205;28;20237;-65
2022/09/26 01:14:03;;;;;;;5.23;2.97;;;;;;;9.86;100.00;-24092.34;5073323;28;20178;-65
2022/09/26 01:16:30;;;;;;;4.50;3.20;;;;;;;10.18;100.00;-24101.41;5073062;28;20185;-65
2022/09/26 01:18:56;;;;;;;4.77;3.10;;;;;;;10.11;100.00;-24099.56;5072995;28;20229;-66
2022/09/26 01:21:25;;;;;;;5.20;3.60;;;;;;;10.31;100.00;-24104.94;5072613;28;20221;-65
2022/09/26 01:24:25;;;;;;;4.40;3.53;;;;;;;10.21;100.00;-24102.25;5073490;28;20261;-65
2022/09/26 01:27:02;;;;;;;4.70;2.70;;;;;;;10.29;100.00;-24104.50;5073270;28;20211;-65
2022/09/26 01:29:38;;;;;;;5.90;3.57;;;;;;;10.25;100.00;-24103.38;5088063;28;20173;-65
2022/09/26 01:33:05;;;;;;;5.90;3.63;;;;;;;10.18;100.00;-24101.53;5092682;28;20180;-64
2022/09/26 01:35:48;;;;;;;3.97;3.00;;;;;;;10.25;100.00;-24103.38;5010109;28;20187;-65
2022/09/26 01:38:47;;;;;;;5.13;3.60;;;;;;;9.90;100.00;-24093.63;5010180;28;20286;-65
2022/09/26 01:41:46;;;;;;;5.27;3.30;;;;;;;9.72;100.00;-24088.69;5070583;28;20281;-65
2022/09/26 01:44:27;;;;;;;8.43;3.40;;;;;;;9.82;100.00;-24091.38;5060622;28;20261;-65
2022/09/26 01:47:10;;;;;;;5.60;3.63;;;;;;;9.98;100.00;-24095.75;5072283;28;20183;-65
2022/09/26 01:49:53;;;;;;;4.07;3.17;;;;;;;9.90;100.00;-24093.63;5072655;28;20182;-65
2022/09/26 01:52:22;;;;;;;6.57;3.23;;;;;;;9.91;100.00;-24093.78;5073463;28;20261;-67
2022/09/26 01:55:18;;;;;;;4.63;3.23;;;;;;;9.79;100.00;-24090.38;5070594;28;20178;-66
2022/09/26 01:57:52;;;;;;;4.60;3.10;;;;;;;9.90;100.00;-24093.47;5072213;28;20170;-64
2022/09/26 02:00:18;;;;;;;4.87;3.23;;;;;;;9.80;100.00;-24090.66;5072710;28;20186;-64
2022/09/26 02:02:46;;;;;;;4.87;3.07;;;;;;;9.69;100.00;-24087.84;5071793;28;20170;-64
2022/09/26 02:05:24;;;;;;;5.73;3.33;;;;;;;9.79;100.00;-24090.53;5070865;28;20669;-64
2022/09/26 02:07:57;;;;;;;5.03;3.07;;;;;;;9.45;100.00;-24080.91;5072026;28;20162;-64
2022/09/26 02:10:45;;;;;;;3.03;2.50;;;;;;;9.37;100.00;-24078.78;5071914;28;20178;-64
2022/09/26 02:13:15;;;;;;;3.00;2.37;;;;;;;9.21;100.00;-24074.25;5072019;28;20226;-64
2022/09/26 02:15:45;;;;;;;7.03;3.60;;;;;;;9.64;100.00;-24086.44;5072017;28;20261;-64
2022/09/26 02:18:30;;;;;;;6.03;3.40;;;;;;;9.67;100.00;-24087.28;5072247;28;20644;-65
2022/09/26 02:21:19;;;;;;;3.87;3.27;;;;;;;9.65;100.00;-24086.72;5072207;28;20224;-64
2022/09/26 02:23:50;;;;;;;3.73;2.90;;;;;;;9.53;100.00;-24083.16;5070893;28;20181;-64
2022/09/26 02:26:17;;;;;;;3.83;3.20;;;;;;;9.40;100.00;-24079.63;5071912;28;20216;-64
2022/09/26 02:28:42;;;;;;;4.50;2.77;;;;;;;9.33;100.00;-24077.66;5072606;28;20225;-64
2022/09/26 02:31:10;;;;;;;3.97;3.00;;;;;;;9.11;100.00;-24071.44;5072140;28;20633;-65
2022/09/26 02:33:36;;;;;;;4.47;3.23;;;;;;;9.04;100.00;-24069.59;5070381;28;20177;-65
2022/09/26 02:36:09;;;;;;;3.50;3.13;;;;;;;9.37;100.00;-24078.66;5072282;28;20559;-65
2022/09/26 02:38:36;;;;;;;11.60;3.07;;;;;;;9.13;100.00;-24072.00;5072153;28;20202;-64
2022/09/26 02:41:07;;;;;;;6.37;3.20;;;;;;;9.40;100.00;-24079.63;5072001;28;20174;-64
2022/09/26 02:43:47;;;;;;;5.63;3.87;;;;;;;9.40;100.00;-24079.50;5070500;28;20198;-64
2022/09/26 02:46:27;;;;;;;4.00;3.03;;;;;;;9.39;100.00;-24079.22;5071522;28;20686;-64
2022/09/26 02:49:20;;;;;;;7.40;3.47;;;;;;;9.37;100.00;-24078.78;5071069;28;20304;-64
2022/09/26 02:51:58;;;;;;;5.27;3.40;;;;;;;9.52;100.00;-24083.03;5071455;28;20181;-64
2022/09/26 02:54:37;;;;;;;5.30;3.40;;;;;;;9.42;100.00;-24080.22;5071915;28;20178;-64
2022/09/26 02:57:12;;;;;;;4.83;3.53;;;;;;;9.34;100.00;-24077.81;5071966;28;20194;-64
2022/09/26 03:00:02;;;;;;;4.37;3.50;;;;;;;9.26;100.00;-24075.69;5072205;28;20294;-64
2022/09/26 03:02:36;;;;;;;6.30;2.93;;;;;;;9.32;100.00;-24077.38;5098555;28;20188;-64
2022/09/26 03:05:14;;;;;;;4.63;3.03;;;;;;;9.36;100.00;-24078.38;5093748;28;20550;-63
2022/09/26 03:07:47;;;;;;;3.93;2.87;;;;;;;9.02;100.00;-24068.91;5093759;28;20181;-64
2022/09/26 03:10:14;;;;;;;4.33;3.60;;;;;;;9.28;100.00;-24076.25;5098432;28;20260;-63
2022/09/26 03:12:43;;;;;;;3.93;2.87;;;;;;;9.15;100.00;-24072.56;5096220;28;20181;-63
2022/09/26 03:15:10;;;;;;;5.27;3.33;;;;;;;9.31;100.00;-24077.09;5094841;28;20268;-63
2022/09/26 03:17:41;;;;;;;6.33;3.57;;;;;;;9.07;100.00;-24070.44;5101718;28;20178;-65
2022/09/26 03:20:13;;;;;;;4.17;3.13;;;;;;;8.81;100.00;-24063.09;5099512;28;20644;-63
2022/09/26 03:22:41;;;;;;;4.33;3.10;;;;;;;9.17;100.00;-24073.13;5097957;28;20940;-64
2022/09/26 03:25:08;;;;;;;5.53;3.47;;;;;;;9.17;100.00;-24073.13;5096970;28;20223;-65
2022/09/26 03:27:37;;;;;;;5.33;2.90;;;;;;;9.10;100.00;-24071.31;5100166;28;20177;-65
2022/09/26 03:30:04;;;;;;;4.80;3.60;;;;;;;8.79;100.00;-24062.66;5100159;28;20169;-64
2022/09/26 03:32:31;;;;;;;5.20;3.20;;;;;;;8.87;100.00;-24064.78;5098896;27;20386;-65
2022/09/26 03:34:56;;;;;;;3.63;3.10;;;;;;;8.81;100.00;-24063.09;5099556;28;20349;-65
2022/09/26 03:37:22;;;;;;;3.50;2.77;;;;;;;8.88;100.00;-24065.22;5099903;28;20719;-65
2022/09/26 03:39:47;;;;;;;6.70;4.00;;;;;;;8.92;100.00;-24066.22;5098306;28;20311;-65
2022/09/26 03:42:14;;;;;;;5.03;3.43;;;;;;;8.71;100.00;-24060.25;5097400;28;20676;-65
2022/09/26 03:44:40;;;;;;;4.77;3.27;;;;;;;9.02;100.00;-24068.91;5099038;28;20205;-65
2022/09/26 03:47:05;;;;;;;9.70;3.30;;;;;;;8.66;100.00;-24058.84;5099455;28;20185;-65
2022/09/26 03:49:31;;;;;;;4.57;3.30;;;;;;;8.88;100.00;-24065.22;5098915;28;20713;-65
2022/09/26 03:51:56;;;;;;;4.17;2.87;;;;;;;8.60;100.00;-24057.28;5098329;28;20189;-65
2022/09/26 03:54:22;;;;;;;3.90;3.33;;;;;;;8.91;100.00;-24065.78;5098180;28;20233;-65
2022/09/26 03:56:48;;;;;;;3.63;3.10;;;;;;;8.96;100.00;-24067.19;5094448;28;20177;-64
2022/09/26 03:59:13;;;;;;;3.20;2.83;;;;;;;9.00;100.00;-24068.47;5095591;28;20192;-64
2022/09/26 04:01:40;;;;;;;4.97;3.57;;;;;;;8.71;100.00;-24060.25;5097457;28;20181;-65
2022/09/26 04:04:05;;;;;;;6.63;3.37;;;;;;;8.84;100.00;-24063.94;5095673;27;20180;-65
2022/09/26 04:06:31;;;;;;;7.77;3.50;;;;;;;8.74;100.00;-24061.13;5096517;28;20177;-65
2022/09/26 04:08:56;;;;;;;5.07;3.23;;;;;;;8.97;100.00;-24067.63;5097677;28;20602;-65
2022/09/26 04:11:23;;;;;;;6.63;3.93;;;;;;;8.56;100.00;-24056.03;5095389;28;20194;-66
2022/09/26 04:13:49;;;;;;;3.97;2.97;;;;;;;9.00;100.00;-24068.34;5097473;28;20185;-65
2022/09/26 04:16:15;;;;;;;4.60;3.00;;;;;;;8.87;100.00;-24064.78;5095421;28;20193;-65
2022/09/26 04:18:41;;;;;;;7.07;3.33;;;;;;;9.15;100.00;-24072.56;5096308;28;20204;-66
2022/09/26 04:21:09;;;;;;;6.53;3.07;;;;;;;9.28;100.00;-24076.38;5096229;28;20213;-65
2022/09/26 04:23:39;;;;;;;4.27;3.30;;;;;;;9.37;100.00;-24078.78;5097630;28;20269;-65
2022/09/26 04:26:05;;;;;;;6.23;3.03;;;;;;;9.01;100.00;-24068.75;5097964;28;20205;-65
2022/09/26 04:28:31;;;;;;;4.80;3.80;;;;;;;9.35;100.00;-24078.22;5096915;28;20546;-66
2022/09/26 04:30:57;;;;;;;5.57;3.03;;;;;;;9.28;100.00;-24076.38;5098211;28;20181;-66
2022/09/26 04:33:23;;;;;;;6.40;3.70;;;;;;;9.70;100.00;-24087.97;5098879;28;20280;-64
2022/09/26 04:35:49;;;;;;;5.90;3.50;;;;;;;10.02;100.00;-24096.88;5098917;28;20334;-65
2022/09/26 04:38:14;;;;;;;4.27;3.40;;;;;;;9.75;100.00;-24089.53;5097354;28;20673;-65
2022/09/26 04:40:40;;;;;;;5.93;3.60;;;;;;;9.54;100.00;-24083.47;5096343;28;20181;-66
2022/09/26 04:43:05;;;;;;;4.87;3.53;;;;;;;9.61;100.00;-24085.56;5097724;28;20288;-65
2022/09/26 04:45:31;;;;;;;3.57;3.17;;;;;;;9.91;100.00;-24093.78;5098458;28;20185;-65
2022/09/26 04:47:56;;;;;;;5.77;3.47;;;;;;;10.06;100.00;-24098.00;5098320;28;20599;-66
2022/09/26 04:50:21;;;;;;;5.70;4.03;;;;;;;9.89;100.00;-24093.34;5097835;28;21146;-65
2022/09/26 04:52:47;;;;;;;3.53;3.17;;;;;;;9.85;100.00;-24092.22;5097657;28;20181;-65
2022/09/26 04:55:12;;;;;;;5.53;3.60;;;;;;;9.90;100.00;-24093.63;5095878;28;20654;-65
2022/09/26 04:57:38;;;;;;;5.07;3.27;;;;;;;10.28;100.00;-24104.22;5098058;28;21343;-65
2022/09/26 05:00:06;;;;;;;5.40;3.10;;;;;;;10.41;100.00;-24107.88;5096954;28;20224;-64
2022/09/26 05:02:32;;;;;;;10.83;3.87;;;;;;;10.44;100.00;-24108.75;5097689;28;20654;-65
2022/09/26 05:04:58;;;;;;;4.33;3.17;;;;;;;10.69;100.00;-24115.50;5098999;28;20209;-67
2022/09/26 05:07:26;;;;;;;7.20;4.23;;;;;;;10.93;100.00;-24122.28;5097053;28;20656;-66
2022/09/26 05:09:52;;;;;;;10.40;3.77;;;;;;;10.79;100.00;-24118.34;5095955;28;20188;-65
2022/09/26 05:12:17;;;;;;;6.90;3.83;;;;;;;11.25;100.00;-24131.16;5096105;28;20177;-68
2022/09/26 05:14:43;;;;;;;5.07;3.23;;;;;;;11.38;100.00;-24134.97;5096467;28;20178;-65
2022/09/26 05:17:12;;;;;;;3.53;3.07;;;;;;;11.51;100.00;-24138.63;5098281;28;20176;-65
2022/09/26 05:19:37;;;;;;;5.27;3.00;;;;;;;11.72;100.00;-24144.41;5098308;28;20266;-66
2022/09/26 05:22:03;;;;;;;9.52;3.70;;;;;;;11.70;100.00;-24143.84;5095851;28;20707;-66
2022/09/26 05:27:13;;;;;;;4.68;3.28;;;;;;;11.47;100.00;-24137.34;5096825;28;20238;-65
2022/09/26 05:29:38;;;;;;;7.15;3.88;;;;;;;11.61;100.00;-24141.31;5096049;28;21704;-65
2022/09/26 05:32:04;;;;;;;6.38;3.67;;;;;;;11.76;100.00;-24145.41;5097199;28;20565;-66
2022/09/26 05:34:29;;;;;;;4.15;3.08;;;;;;;12.05;100.00;-24153.56;5096783;28;20211;-64
2022/09/26 05:36:55;;;;;;;6.88;3.22;;;;;;;12.04;100.00;-24153.28;5097402;28;20212;-65
2022/09/26 05:42:06;;;;;;;5.40;3.42;;;;;;;12.27;100.00;-24159.75;5096716;28;20192;-65
2022/09/26 05:44:32;;;;;;;4.35;3.42;;;;;;;12.63;100.00;-24169.59;5095920;28;20195;-65
2022/09/26 05:46:58;;;;;;;5.20;3.33;;;;;;;12.56;100.00;-24167.63;5093500;28;20287;-64
2022/09/26 05:49:24;;;;;;;6.15;3.65;;;;;;;12.94;100.00;-24178.31;5095702;28;20730;-64
2022/09/26 05:51:51;;;;;;;4.88;3.38;;;;;;;12.96;100.00;-24178.88;5096270;28;20231;-64
2022/09/26 05:54:16;;;;;;;4.70;3.22;;;;;;;13.06;100.00;-24181.69;5096524;28;20184;-64
2022/09/26 05:56:42;;;;;;;4.70;3.20;;;;;;;13.14;100.00;-24183.81;5096388;28;20622;-63
2022/09/26 05:59:07;;;;;;;4.25;2.85;;;;;;;13.24;100.00;-24186.63;5097122;28;20700;-64
2022/09/26 06:01:33;;;;;;;4.65;3.80;;;;;;;13.64;100.00;-24197.84;5096491;28;20242;-64
2022/09/26 06:03:59;;;;;;;7.00;3.90;;;;;;;13.54;100.00;-24194.91;5095667;28;20256;-65
2022/09/26 06:06:24;;;;;;;5.45;3.13;;;;;;;13.99;100.00;-24207.53;5094226;28;20174;-64
2022/09/26 06:08:50;;;;;;;4.55;3.28;;;;;;;14.24;100.00;-24214.41;5095957;28;20358;-64
2022/09/26 06:11:19;;;;;;;4.07;2.72;;;;;;;14.66;100.00;-24225.91;5096850;28;20223;-65
2022/09/26 06:13:45;;;;;;;5.60;3.28;;;;;;;15.37;100.00;-24245.81;5095268;28;20193;-66
2022/09/26 06:16:17;;;;;;;5.15;3.60;;;;;;;15.01;100.00;-24235.72;5095809;28;20232;-63
2022/09/26 06:18:44;;;;;;;4.35;3.30;;;;;;;15.00;100.00;-24235.59;5096303;28;20689;-66
2022/09/26 06:21:11;;;;;;;5.82;3.38;;;;;;;15.12;100.00;-24238.81;5096304;28;20224;-66
2022/09/26 06:23:37;;;;;;;3.38;2.80;;;;;;;15.21;100.00;-24241.19;5096506;28;20643;-63
2022/09/26 06:26:06;;;;;;;6.55;3.72;;;;;;;15.14;100.00;-24239.38;5096943;28;20181;-64
2022/09/26 06:28:32;;;;;;;8.38;3.40;;;;;;;15.00;100.00;-24235.59;5096069;28;20169;-64
2022/09/26 06:30:57;;;;;;;7.75;3.92;;;;;;;15.09;100.00;-24237.81;5096683;28;20181;-65
2022/09/26 06:33:23;;;;;;;7.00;3.15;;;;;;;15.46;100.00;-24248.34;5096862;28;20178;-65
2022/09/26 06:36:02;;;;;;;9.13;5.03;;;;;;;16.00;100.00;-24263.16;5096731;28;20187;-65
2022/09/26 06:38:28;;;;;;;7.60;4.25;;;;;;;15.90;100.00;-24260.50;5096812;28;20845;-64
2022/09/26 06:40:54;;;;;;;4.65;3.38;;;;;;;15.42;100.00;-24247.22;5096416;28;20203;-64
2022/09/26 06:43:20;;;;;;;4.78;2.78;;;;;;;15.77;100.00;-24256.72;5096811;28;20185;-63
2022/09/26 06:45:47;;;;;;;5.13;3.17;;;;;;;15.91;100.00;-24260.78;5096701;28;20191;-65
2022/09/26 06:48:17;;;;;;;4.18;2.70;;;;;;;16.04;100.00;-24264.28;5096130;28;20181;-64
2022/09/26 06:50:43;;;;;;;3.08;2.78;;;;;;;15.87;100.00;-24259.53;5096066;28;20180;-65
2022/09/26 06:53:09;;;;;;;4.03;2.72;;;;;;;16.01;100.00;-24263.31;5100411;28;21310;-65
2022/09/26 06:55:35;;;;;;;3.90;2.35;;;;;;;16.37;100.00;-24273.25;5099489;28;20256;-63
2022/09/26 06:58:00;;;;;;;3.53;2.55;;;;;;;16.63;100.00;-24280.66;5099968;28;20287;-64
2022/09/26 07:00:26;;;;;;;3.80;2.47;;;;;;;17.08;100.00;-24292.94;5100279;28;20687;-65
2022/09/26 07:02:53;;;;;;;3.70;2.55;;;;;;;17.23;100.00;-24297.28;5100272;28;20196;-65
2022/09/26 07:05:23;;;;;;;4.47;2.90;;;;;;;17.14;100.00;-24294.75;5100136;28;20223;-64
2022/09/26 07:07:49;;;;;;;3.97;2.45;;;;;;;17.39;100.00;-24301.44;5100548;28;20185;-65
2022/09/26 07:10:20;;;;;;;3.85;2.42;;;;;;;17.81;100.00;-24313.03;5099773;28;20559;-65
2022/09/26 07:12:46;;;;;;;6.50;3.08;;;;;;;17.52;100.00;-24305.22;5099714;28;20300;-64
2022/09/26 07:15:17;;;;;;;3.38;2.60;;;;;;;17.71;100.00;-24310.25;5098321;28;20172;-64
2022/09/26 07:17:44;;;;;;;6.30;2.95;;;;;;;17.61;100.00;-24307.75;5100592;28;20208;-64
2022/09/26 07:20:12;;;;;;;4.03;2.80;;;;;;;18.01;100.00;-24318.75;5100273;28;20683;-63
2022/09/26 07:22:37;;;;;;;3.63;3.03;;;;;;;17.92;100.00;-24316.09;5099074;27;20233;-63
2022/09/26 07:25:04;;;;;;;4.50;3.13;;;;;;;18.40;100.00;-24329.47;5095295;28;20173;-65
2022/09/26 07:27:29;;;;;;;4.13;2.90;;;;;;;18.70;100.00;-24337.56;5095454;28;20656;-65
2022/09/26 07:29:55;;;;;;;3.28;2.58;;;;;;;18.93;100.00;-24343.97;5093979;28;20177;-64
2022/09/26 07:32:21;;;;;;;5.35;2.92;;;;;;;18.73;100.00;-24338.41;5094977;28;20358;-66
2022/09/26 07:34:47;;;;;;;5.85;2.53;;;;;;;19.01;100.00;-24346.19;5095427;28;20212;-65
2022/09/26 07:37:14;;;;;;;5.07;3.25;;;;;;;18.95;100.00;-24344.66;5095116;28;20279;-65
2022/09/26 07:39:39;;;;;;;5.35;2.88;;;;;;;19.35;100.00;-24355.66;5094889;28;20189;-65
2022/09/26 07:42:05;;;;;;;4.57;2.80;;;;;;;18.78;99.83;-24339.94;5094532;28;20179;-65
2022/09/26 07:44:31;;;;;;;6.57;2.80;;;;;;;19.21;99.72;-24351.63;5095647;28;20204;-64
2022/09/26 07:52:29;;;;;;;4.82;2.75;;;;;;;20.07;94.61;-24375.41;5083984;28;20184;-66
2022/09/26 07:54:55;;;;;;;5.03;2.38;;;;;;;20.23;92.02;-24379.84;5094221;28;20161;-66
2022/09/26 07:57:20;;;;;;;4.70;2.90;;;;;;;20.09;88.28;-24375.97;5094620;28;20177;-68
2022/09/26 07:59:48;;;;;;;5.25;2.58;;;;;;;20.14;89.01;-24377.22;5093457;28;20196;-65
2022/09/26 08:02:25;;;;;;;4.32;2.67;;;;;;;20.18;87.29;-24378.31;5098518;28;20272;-66
2022/09/26 08:04:53;;;;;;;3.25;2.53;;;;;;;20.16;88.76;-24377.91;5098789;28;20184;-64
2022/09/26 08:07:19;;;;;;;4.75;2.50;;;;;;;20.10;89.61;-24376.09;5098093;28;20533;-66
2022/09/26 08:09:45;;;;;;;3.58;2.58;;;;;;;20.57;87.69;-24389.16;5098223;28;20214;-66
2022/09/26 08:12:11;;;;;;;3.92;2.83;;;;;;;20.73;86.13;-24393.44;5098226;28;20181;-66
2022/09/26 08:14:36;;;;;;;5.78;2.70;;;;;;;20.77;83.57;-24394.41;5099349;28;20296;-65
2022/09/26 08:17:02;;;;;;;5.40;2.50;;;;;;;20.55;84.77;-24388.47;5099414;28;20662;-67
2022/09/26 08:19:28;;;;;;;4.55;2.63;;;;;;;21.03;82.63;-24401.78;5098954;28;20298;-65
2022/09/26 08:21:53;;;;;;;3.65;2.45;;;;;;;21.03;81.61;-24401.63;5098260;28;20329;-65
2022/09/26 08:24:19;;;;;;;4.70;2.70;;;;;;;20.96;80.31;-24399.84;5097097;28;20188;-67
2022/09/26 08:26:44;;;;;;;3.55;2.55;;;;;;;21.34;78.40;-24410.25;5098234;28;20177;-66
2022/09/26 08:29:11;;;;;;;3.92;2.38;;;;;;;21.27;76.59;-24408.16;5098110;28;20200;-66
2022/09/26 08:31:37;;;;;;;4.65;2.53;;;;;;;20.59;76.32;-24389.56;5099321;28;20652;-65
2022/09/26 08:34:04;;;;;;;5.32;2.72;;;;;;;21.07;75.29;-24402.88;5098634;28;20181;-65
2022/09/26 08:36:31;;;;;;;4.63;2.42;;;;;;;21.45;71.17;-24413.16;5097159;28;20259;-65
2022/09/26 08:38:57;;;;;;;3.28;2.30;;;;;;;21.28;73.48;-24408.56;5098841;28;20205;-63
2022/09/26 08:41:35;;;;;;;4.50;2.45;;;;;;;21.36;72.24;-24410.66;5097936;28;20204;-65
2022/09/26 08:44:28;;;;;;;4.65;2.97;;;;;;;21.38;72.88;-24411.22;5098763;28;20181;-64
2022/09/26 08:47:04;;;;;;;3.75;2.65;;;;;;;21.75;70.78;-24421.47;5097033;28;20177;-66
2022/09/26 08:49:43;;;;;;;3.70;2.65;;;;;;;21.91;68.65;-24425.75;5098186;28;20216;-65
2022/09/26 08:52:20;;;;;;;3.60;2.67;;;;;;;21.42;70.90;-24412.47;5097862;28;20176;-66
2022/09/26 08:54:48;;;;;;;4.53;2.85;;;;;;;21.41;70.85;-24412.03;5098081;28;20343;-68
2022/09/26 08:57:23;;;;;;;4.45;2.92;;;;;;;21.63;71.68;-24418.00;5098240;28;20200;-63
2022/09/26 08:59:50;;;;;;;6.30;3.17;;;;;;;21.42;73.26;-24412.31;5097867;28;20216;-66
2022/09/26 09:02:25;;;;;;;4.03;2.55;;;;;;;21.63;71.89;-24418.00;5096817;28;20189;-65
2022/09/26 09:05:16;;;;;;;4.00;2.90;;;;;;;21.93;71.21;-24426.44;5095394;28;20661;-64
2022/09/26 09:07:50;;;;;;;4.00;2.90;;;;;;;22.07;69.99;-24430.19;5096357;28;20176;-66
2022/09/26 09:10:18;;;;;;;4.10;2.90;;;;;;;22.14;69.76;-24432.00;5096796;28;20189;-66
2022/09/26 09:13:08;;;;;;;4.70;3.38;;;;;;;22.11;70.02;-24431.28;5095957;28;20176;-67
2022/09/26 09:16:00;;;;;;;5.05;3.15;;;;;;;21.97;71.07;-24427.56;5095451;28;20292;-67
2022/09/26 09:18:56;;;;;;;4.03;2.80;;;;;;;22.50;70.75;-24441.94;5095057;28;20265;-66
2022/09/26 09:21:27;;;;;;;5.38;3.08;;;;;;;22.97;66.94;-24454.66;5096523;28;20216;-65
2022/09/26 09:24:22;;;;;;;4.22;2.70;;;;;;;22.48;66.66;-24441.41;5097060;28;20902;-66
2022/09/26 09:27:00;;;;;;;5.18;2.80;;;;;;;22.11;68.39;-24431.28;5095646;28;20249;-65
2022/09/26 09:29:28;;;;;;;3.78;2.55;;;;;;;21.70;69.58;-24420.06;5095219;28;20279;-63
2022/09/26 09:31:55;;;;;;;6.95;3.00;;;;;;;21.93;71.41;-24426.31;5095293;28;20260;-63
2022/09/26 09:34:26;;;;;;;4.55;2.65;;;;;;;22.16;70.07;-24432.53;5094830;28;20354;-66
2022/09/26 09:37:03;;;;;;;4.13;2.58;;;;;;;22.05;69.51;-24429.50;5093731;28;20184;-66
2022/09/26 09:39:37;;;;;;;4.28;2.90;;;;;;;22.11;70.46;-24431.16;5095624;28;20219;-66
2022/09/26 09:42:16;;;;;;;5.68;2.92;;;;;;;22.31;69.89;-24436.84;5096529;28;20271;-66
2022/09/26 09:44:46;;;;;;;4.97;2.67;;;;;;;21.98;69.91;-24427.84;5094572;28;20231;-65
2022/09/26 09:47:14;;;;;;;3.13;2.40;;;;;;;22.49;70.86;-24441.66;5096460;28;20184;-64
2022/09/26 09:49:41;;;;;;;3.22;2.22;;;;;;;22.86;67.08;-24451.91;5096189;28;20195;-66
2022/09/26 09:52:43;;;;;;;3.22;2.25;;;;;;;23.10;65.25;-24458.41;5092225;28;20683;-63
2022/09/26 09:55:38;;;;;;;5.05;3.00;;;;;;;23.11;66.03;-24458.69;5089106;28;20184;-65
2022/09/26 09:58:04;;;;;;;4.53;2.50;;;;;;;23.17;63.89;-24460.34;5095835;28;20215;-68
2022/09/26 10:00:34;;;;;;;5.20;2.80;;;;;;;23.22;64.35;-24461.72;5096646;28;20192;-66
2022/09/26 10:03:02;;;;;;;3.67;2.70;;;;;;;23.37;66.05;-24465.59;5096027;28;20177;-64
2022/09/26 10:05:44;;;;;;;3.78;2.50;;;;;;;23.22;66.50;-24461.72;5096208;28;20180;-65
2022/09/26 10:08:31;;;;;;;3.78;2.63;;;;;;;23.67;63.78;-24474.00;5096091;28;20553;-66
2022/09/26 10:11:21;;;;;;;4.90;2.95;;;;;;;23.70;64.87;-24474.84;5089310;28;20239;-65
2022/09/26 10:13:51;;;;;;;5.20;3.17;;;;;;;23.63;61.58;-24472.78;5095158;28;20209;-66
2022/09/26 10:16:16;;;;;;;4.63;3.15;;;;;;;23.86;62.21;-24478.97;5095775;27;20181;-65
2022/09/26 10:19:05;;;;;;;3.45;2.40;;;;;;;23.57;62.13;-24471.13;5096441;28;20227;-66
2022/09/26 10:21:38;;;;;;;4.35;2.22;;;;;;;23.34;63.86;-24464.91;5094971;28;20313;-65
2022/09/26 10:24:05;;;;;;;3.88;2.60;;;;;;;23.60;63.37;-24472.06;5094797;28;20177;-66
2022/09/26 10:26:33;;;;;;;3.90;2.50;;;;;;;23.25;61.59;-24462.56;5095221;28;20241;-64
2022/09/26 10:29:24;;;;;;;3.58;2.45;;;;;;;23.73;61.78;-24475.66;5096593;28;20193;-66
2022/09/26 10:32:00;;;;;;;4.20;2.22;;;;;;;23.65;59.37;-24473.47;5088431;28;20187;-65
2022/09/26 10:34:28;;;;;;;4.07;2.55;;;;;;;23.43;58.18;-24467.38;5095163;28;20199;-66
2022/09/26 10:36:54;;;;;;;3.80;2.40;;;;;;;23.35;61.14;-24465.31;5095898;28;20184;-66
2022/09/26 10:42:20;;;;;;;5.05;2.38;;;;;;;23.72;59.16;-24475.38;5094847;28;20273;-65
2022/09/26 10:44:49;;;;;;;4.35;2.70;;;;;;;24.50;57.91;-24496.63;5093404;28;20272;-67
2022/09/26 10:47:23;;;;;;;4.35;2.92;;;;;;;24.14;58.75;-24486.69;5093840;28;20173;-64
2022/09/26 10:49:55;;;;;;;3.10;2.50;;;;;;;24.46;57.10;-24495.53;5094577;28;20222;-67
2022/09/26 10:52:24;;;;;;;3.30;2.53;;;;;;;24.20;56.52;-24488.50;5094000;28;20203;-66
2022/09/26 10:55:09;;;;;;;3.47;2.65;;;;;;;24.27;57.08;-24490.28;5093486;28;20185;-66
2022/09/26 10:57:44;;;;;;;3.47;2.38;;;;;;;24.29;56.31;-24490.72;5093545;28;20172;-67
2022/09/26 11:00:37;;;;;;;4.95;2.45;;;;;;;23.87;57.82;-24479.25;5096104;28;20612;-68
2022/09/26 11:03:09;;;;;;;4.00;2.30;;;;;;;23.83;57.60;-24478.28;5092210;28;20244;-65
2022/09/26 11:05:56;;;;;;;4.60;2.40;;;;;;;23.54;57.58;-24470.41;5095793;28;20177;-66
2022/09/26 11:08:36;;;;;;;3.35;2.40;;;;;;;23.29;57.38;-24463.66;5095822;28;20180;-66
2022/09/26 11:11:12;;;;;;;3.92;2.47;;;;;;;23.48;60.06;-24468.63;5095295;28;20187;-65
2022/09/26 11:13:46;;;;;;;2.97;2.50;;;;;;;23.86;60.62;-24478.97;5095620;28;20169;-66
2022/09/26 11:16:18;;;;;;;4.53;2.47;;;;;;;23.49;57.44;-24468.91;5095002;28;21050;-66
2022/09/26 11:18:57;;;;;;;4.22;2.38;;;;;;;24.09;59.57;-24485.31;5096451;28;20216;-67
2022/09/26 11:21:44;;;;;;;3.30;2.40;;;;;;;24.24;57.46;-24489.31;5095167;28;20327;-65
2022/09/26 11:24:48;;;;;;;3.78;2.58;;;;;;;24.42;58.23;-24494.44;5094966;28;20664;-67
2022/09/26 11:27:42;;;;;;;3.63;2.60;;;;;;;24.55;56.18;-24498.00;5095879;28;20495;-63
2022/09/26 11:30:11;;;;;;;4.53;2.30;;;;;;;24.61;56.50;-24499.66;5088564;28;20201;-68
2022/09/26 11:32:42;;;;;;;4.25;2.70;;;;;;;24.84;56.73;-24505.72;5095207;28;20208;-67
2022/09/26 11:35:19;;;;;;;3.13;2.28;;;;;;;25.05;53.07;-24511.50;5090536;28;20181;-64
2022/09/26 11:38:34;;;;;;;3.42;2.25;;;;;;;24.76;53.55;-24503.53;5095415;28;20181;-66
2022/09/26 11:41:35;;;;;;;8.98;2.70;;;;;;;25.05;55.85;-24511.50;5091855;28;20637;-64
2022/09/26 11:44:38;;;;;;;4.05;2.70;;;;;;;25.53;53.64;-24524.72;5095140;28;20173;-65
2022/09/26 11:47:13;;;;;;;5.18;2.53;;;;;;;25.43;54.27;-24521.97;5094381;28;20210;-67
2022/09/26 11:49:58;;;;;;;4.38;2.63;;;;;;;25.50;53.73;-24523.75;5094584;28;20165;-65
2022/09/26 11:52:47;;;;;;;3.78;2.40;;;;;;;25.34;56.00;-24519.50;5094220;28;20222;-65
2022/09/26 11:55:49;;;;;;;7.95;2.75;;;;;;;25.12;54.34;-24513.31;5094984;28;20561;-67
2022/09/26 11:58:37;;;;;;;3.70;2.50;;;;;;;24.85;54.32;-24506.00;5094643;28;20251;-67